sensor_id;sensor_type;location;lat;lon;timestamp;P1;durP1;ratioP1;P2;durP2;ratioP2
73951;SDS011;62304;47.662;18.324;2023-04-03T00:02:49;7.68;;;3.92;;
73951;SDS011;62304;47.662;18.324;2023-04-03T00:05:54;7.28;;;3.58;;
73951;SDS011;62304;47.662;18.324;2023-04-03T00:08:57;7.05;;;3.42;;
73951;SDS011;62304;47.662;18.324;2023-04-03T00:12:00;9.20;;;4.10;;
73951;SDS011;62304;47.662;18.324;2023-04-03T00:15:03;7.75;;;2.35;;
73951;SDS011;62304;47.662;18.324;2023-04-03T00:18:07;10.30;;;4.25;;
73951;SDS011;62304;47.662;18.324;2023-04-03T00:21:11;8.43;;;4.28;;
73951;SDS011;62304;47.662;18.324;2023-04-03T00:24:18;9.55;;;3.95;;
73951;SDS011;62304;47.662;18.324;2023-04-03T00:27:20;6.80;;;3.37;;
73951;SDS011;62304;47.662;18.324;2023-04-03T00:30:23;8.52;;;4.03;;
73951;SDS011;62304;47.662;18.324;2023-04-03T00:33:26;8.32;;;3.83;;
73951;SDS011;62304;47.662;18.324;2023-04-03T00:36:29;8.05;;;4.28;;
73951;SDS011;62304;47.662;18.324;2023-04-03T00:39:35;9.50;;;4.70;;
73951;SDS011;62304;47.662;18.324;2023-04-03T00:42:39;6.77;;;3.53;;
73951;SDS011;62304;47.662;18.324;2023-04-03T00:45:44;9.02;;;4.18;;
73951;SDS011;62304;47.662;18.324;2023-04-03T00:48:53;9.75;;;4.40;;
73951;SDS011;62304;47.662;18.324;2023-04-03T00:51:56;6.75;;;3.50;;
73951;SDS011;62304;47.662;18.324;2023-04-03T00:55:02;6.55;;;3.05;;
73951;SDS011;62304;47.662;18.324;2023-04-03T00:58:10;8.83;;;3.83;;
73951;SDS011;62304;47.662;18.324;2023-04-03T01:01:16;8.48;;;3.90;;
73951;SDS011;62304;47.662;18.324;2023-04-03T01:04:41;8.73;;;4.62;;
73951;SDS011;62304;47.662;18.324;2023-04-03T01:07:46;7.10;;;3.75;;
73951;SDS011;62304;47.662;18.324;2023-04-03T01:10:50;9.00;;;3.53;;
73951;SDS011;62304;47.662;18.324;2023-04-03T01:13:54;8.10;;;3.50;;
73951;SDS011;62304;47.662;18.324;2023-04-03T01:16:56;6.28;;;2.85;;
73951;SDS011;62304;47.662;18.324;2023-04-03T01:23:25;5.47;;;2.20;;
73951;SDS011;62304;47.662;18.324;2023-04-03T01:26:35;6.80;;;3.35;;
73951;SDS011;62304;47.662;18.324;2023-04-03T01:29:38;7.70;;;3.47;;
73951;SDS011;62304;47.662;18.324;2023-04-03T01:32:42;8.13;;;2.75;;
73951;SDS011;62304;47.662;18.324;2023-04-03T01:35:47;6.62;;;3.20;;
73951;SDS011;62304;47.662;18.324;2023-04-03T01:38:51;6.35;;;2.70;;
73951;SDS011;62304;47.662;18.324;2023-04-03T01:41:55;7.18;;;3.60;;
73951;SDS011;62304;47.662;18.324;2023-04-03T01:44:58;6.17;;;2.43;;
73951;SDS011;62304;47.662;18.324;2023-04-03T01:48:01;8.13;;;3.03;;
73951;SDS011;62304;47.662;18.324;2023-04-03T01:51:04;6.82;;;3.55;;
73951;SDS011;62304;47.662;18.324;2023-04-03T01:54:06;5.78;;;2.60;;
73951;SDS011;62304;47.662;18.324;2023-04-03T01:57:09;7.80;;;4.03;;
73951;SDS011;62304;47.662;18.324;2023-04-03T02:00:12;9.20;;;3.90;;
73951;SDS011;62304;47.662;18.324;2023-04-03T02:03:16;5.78;;;3.00;;
73951;SDS011;62304;47.662;18.324;2023-04-03T02:06:19;7.72;;;3.78;;
73951;SDS011;62304;47.662;18.324;2023-04-03T02:09:22;5.72;;;2.95;;
73951;SDS011;62304;47.662;18.324;2023-04-03T02:12:26;5.50;;;2.47;;
73951;SDS011;62304;47.662;18.324;2023-04-03T02:15:30;7.03;;;2.97;;
73951;SDS011;62304;47.662;18.324;2023-04-03T02:18:33;6.05;;;2.58;;
73951;SDS011;62304;47.662;18.324;2023-04-03T02:21:36;5.90;;;2.67;;
73951;SDS011;62304;47.662;18.324;2023-04-03T02:24:39;4.00;;;2.12;;
73951;SDS011;62304;47.662;18.324;2023-04-03T02:27:42;7.53;;;3.12;;
73951;SDS011;62304;47.662;18.324;2023-04-03T02:30:45;6.43;;;3.20;;
73951;SDS011;62304;47.662;18.324;2023-04-03T02:33:48;6.70;;;3.22;;
73951;SDS011;62304;47.662;18.324;2023-04-03T02:36:52;6.22;;;2.85;;
73951;SDS011;62304;47.662;18.324;2023-04-03T02:39:55;6.87;;;2.95;;
73951;SDS011;62304;47.662;18.324;2023-04-03T02:42:58;6.47;;;3.15;;
73951;SDS011;62304;47.662;18.324;2023-04-03T02:46:01;6.70;;;3.60;;
73951;SDS011;62304;47.662;18.324;2023-04-03T02:49:04;6.28;;;2.80;;
73951;SDS011;62304;47.662;18.324;2023-04-03T02:52:07;4.68;;;2.15;;
73951;SDS011;62304;47.662;18.324;2023-04-03T02:55:13;4.90;;;1.92;;
73951;SDS011;62304;47.662;18.324;2023-04-03T02:58:19;6.55;;;3.10;;
73951;SDS011;62304;47.662;18.324;2023-04-03T03:01:22;7.17;;;3.10;;
73951;SDS011;62304;47.662;18.324;2023-04-03T03:04:25;6.12;;;2.17;;
73951;SDS011;62304;47.662;18.324;2023-04-03T03:07:28;7.87;;;3.40;;
73951;SDS011;62304;47.662;18.324;2023-04-03T03:10:31;7.37;;;3.20;;
73951;SDS011;62304;47.662;18.324;2023-04-03T03:13:34;5.82;;;2.35;;
73951;SDS011;62304;47.662;18.324;2023-04-03T03:16:37;6.90;;;2.97;;
73951;SDS011;62304;47.662;18.324;2023-04-03T03:19:40;6.12;;;2.65;;
73951;SDS011;62304;47.662;18.324;2023-04-03T03:22:43;5.47;;;2.62;;
73951;SDS011;62304;47.662;18.324;2023-04-03T03:25:46;6.22;;;2.92;;
73951;SDS011;62304;47.662;18.324;2023-04-03T03:28:48;5.80;;;2.65;;
73951;SDS011;62304;47.662;18.324;2023-04-03T03:31:52;7.33;;;2.87;;
73951;SDS011;62304;47.662;18.324;2023-04-03T03:34:54;6.57;;;2.42;;
73951;SDS011;62304;47.662;18.324;2023-04-03T03:37:57;5.60;;;2.80;;
73951;SDS011;62304;47.662;18.324;2023-04-03T03:41:01;6.28;;;3.30;;
73951;SDS011;62304;47.662;18.324;2023-04-03T03:44:04;5.12;;;2.65;;
73951;SDS011;62304;47.662;18.324;2023-04-03T03:47:07;5.73;;;2.50;;
73951;SDS011;62304;47.662;18.324;2023-04-03T03:50:13;6.07;;;2.78;;
73951;SDS011;62304;47.662;18.324;2023-04-03T03:53:16;7.40;;;3.85;;
73951;SDS011;62304;47.662;18.324;2023-04-03T03:56:19;5.70;;;3.15;;
73951;SDS011;62304;47.662;18.324;2023-04-03T03:59:23;7.55;;;3.25;;
73951;SDS011;62304;47.662;18.324;2023-04-03T04:02:26;6.20;;;3.20;;
73951;SDS011;62304;47.662;18.324;2023-04-03T04:05:29;7.55;;;4.03;;
73951;SDS011;62304;47.662;18.324;2023-04-03T04:08:33;5.68;;;2.83;;
73951;SDS011;62304;47.662;18.324;2023-04-03T04:11:36;7.00;;;2.97;;
73951;SDS011;62304;47.662;18.324;2023-04-03T04:14:39;6.35;;;3.10;;
73951;SDS011;62304;47.662;18.324;2023-04-03T04:17:44;8.07;;;3.80;;
73951;SDS011;62304;47.662;18.324;2023-04-03T04:20:47;8.63;;;3.60;;
73951;SDS011;62304;47.662;18.324;2023-04-03T04:23:51;7.15;;;3.28;;
73951;SDS011;62304;47.662;18.324;2023-04-03T04:26:53;6.25;;;3.08;;
73951;SDS011;62304;47.662;18.324;2023-04-03T04:29:57;8.02;;;3.55;;
73951;SDS011;62304;47.662;18.324;2023-04-03T04:33:01;7.20;;;3.50;;
73951;SDS011;62304;47.662;18.324;2023-04-03T04:36:05;6.35;;;3.53;;
73951;SDS011;62304;47.662;18.324;2023-04-03T04:39:08;5.85;;;2.67;;
73951;SDS011;62304;47.662;18.324;2023-04-03T04:42:12;6.55;;;3.55;;
73951;SDS011;62304;47.662;18.324;2023-04-03T04:45:18;5.90;;;2.67;;
73951;SDS011;62304;47.662;18.324;2023-04-03T04:48:21;6.77;;;3.20;;
73951;SDS011;62304;47.662;18.324;2023-04-03T04:51:24;5.82;;;2.92;;
73951;SDS011;62304;47.662;18.324;2023-04-03T04:54:27;6.35;;;3.28;;
73951;SDS011;62304;47.662;18.324;2023-04-03T04:57:31;6.25;;;3.20;;
73951;SDS011;62304;47.662;18.324;2023-04-03T05:00:34;5.93;;;3.20;;
73951;SDS011;62304;47.662;18.324;2023-04-03T05:03:37;5.87;;;1.83;;
73951;SDS011;62304;47.662;18.324;2023-04-03T05:06:40;6.03;;;3.50;;
73951;SDS011;62304;47.662;18.324;2023-04-03T05:09:44;8.05;;;3.12;;
73951;SDS011;62304;47.662;18.324;2023-04-03T05:12:48;4.97;;;2.20;;
73951;SDS011;62304;47.662;18.324;2023-04-03T05:15:51;7.40;;;3.60;;
73951;SDS011;62304;47.662;18.324;2023-04-03T05:18:54;6.97;;;3.47;;
73951;SDS011;62304;47.662;18.324;2023-04-03T05:21:57;6.75;;;3.10;;
73951;SDS011;62304;47.662;18.324;2023-04-03T05:25:00;6.75;;;3.37;;
73951;SDS011;62304;47.662;18.324;2023-04-03T05:28:04;5.90;;;3.05;;
73951;SDS011;62304;47.662;18.324;2023-04-03T05:31:07;8.13;;;4.07;;
73951;SDS011;62304;47.662;18.324;2023-04-03T05:34:10;6.43;;;3.50;;
73951;SDS011;62304;47.662;18.324;2023-04-03T05:37:13;5.80;;;2.60;;
73951;SDS011;62304;47.662;18.324;2023-04-03T05:40:17;10.63;;;4.65;;
73951;SDS011;62304;47.662;18.324;2023-04-03T05:43:21;8.00;;;3.62;;
73951;SDS011;62304;47.662;18.324;2023-04-03T05:46:24;13.95;;;4.05;;
73951;SDS011;62304;47.662;18.324;2023-04-03T05:49:28;6.77;;;3.57;;
73951;SDS011;62304;47.662;18.324;2023-04-03T05:52:37;6.40;;;3.15;;
73951;SDS011;62304;47.662;18.324;2023-04-03T05:55:46;6.85;;;3.50;;
73951;SDS011;62304;47.662;18.324;2023-04-03T05:58:49;4.93;;;2.12;;
73951;SDS011;62304;47.662;18.324;2023-04-03T06:01:53;6.03;;;3.67;;
73951;SDS011;62304;47.662;18.324;2023-04-03T06:04:56;7.27;;;3.13;;
73951;SDS011;62304;47.662;18.324;2023-04-03T06:07:59;5.80;;;2.55;;
73951;SDS011;62304;47.662;18.324;2023-04-03T06:11:01;6.50;;;3.22;;
73951;SDS011;62304;47.662;18.324;2023-04-03T06:14:04;6.50;;;2.55;;
73951;SDS011;62304;47.662;18.324;2023-04-03T06:17:07;6.47;;;2.92;;
73951;SDS011;62304;47.662;18.324;2023-04-03T06:20:14;6.77;;;2.13;;
73951;SDS011;62304;47.662;18.324;2023-04-03T06:23:17;6.60;;;2.20;;
73951;SDS011;62304;47.662;18.324;2023-04-03T06:26:20;7.00;;;3.03;;
73951;SDS011;62304;47.662;18.324;2023-04-03T06:29:24;5.75;;;2.40;;
73951;SDS011;62304;47.662;18.324;2023-04-03T06:32:27;6.15;;;1.83;;
73951;SDS011;62304;47.662;18.324;2023-04-03T06:35:30;6.93;;;2.87;;
73951;SDS011;62304;47.662;18.324;2023-04-03T06:38:33;5.35;;;2.12;;
73951;SDS011;62304;47.662;18.324;2023-04-03T06:41:36;6.32;;;2.95;;
73951;SDS011;62304;47.662;18.324;2023-04-03T06:44:39;6.22;;;2.70;;
73951;SDS011;62304;47.662;18.324;2023-04-03T06:47:44;8.32;;;4.00;;
73951;SDS011;62304;47.662;18.324;2023-04-03T06:50:47;7.70;;;3.47;;
73951;SDS011;62304;47.662;18.324;2023-04-03T06:53:57;6.65;;;3.15;;
73951;SDS011;62304;47.662;18.324;2023-04-03T06:57:01;5.85;;;2.83;;
73951;SDS011;62304;47.662;18.324;2023-04-03T07:00:05;4.57;;;2.50;;
73951;SDS011;62304;47.662;18.324;2023-04-03T07:03:09;6.82;;;3.75;;
73951;SDS011;62304;47.662;18.324;2023-04-03T07:06:12;5.33;;;2.93;;
73951;SDS011;62304;47.662;18.324;2023-04-03T07:09:16;6.57;;;3.58;;
73951;SDS011;62304;47.662;18.324;2023-04-03T07:12:19;6.78;;;3.25;;
73951;SDS011;62304;47.662;18.324;2023-04-03T07:15:22;6.80;;;3.75;;
73951;SDS011;62304;47.662;18.324;2023-04-03T07:18:25;6.65;;;3.45;;
73951;SDS011;62304;47.662;18.324;2023-04-03T07:21:28;6.47;;;2.77;;
73951;SDS011;62304;47.662;18.324;2023-04-03T07:24:32;4.53;;;2.05;;
73951;SDS011;62304;47.662;18.324;2023-04-03T07:27:34;6.35;;;2.90;;
73951;SDS011;62304;47.662;18.324;2023-04-03T07:30:44;5.95;;;2.00;;
73951;SDS011;62304;47.662;18.324;2023-04-03T07:33:52;4.30;;;2.00;;
73951;SDS011;62304;47.662;18.324;2023-04-03T07:36:55;7.00;;;2.37;;
73951;SDS011;62304;47.662;18.324;2023-04-03T07:39:58;10.38;;;2.50;;
73951;SDS011;62304;47.662;18.324;2023-04-03T07:43:04;5.32;;;1.85;;
73951;SDS011;62304;47.662;18.324;2023-04-03T07:46:07;4.53;;;1.50;;
73951;SDS011;62304;47.662;18.324;2023-04-03T07:49:11;3.58;;;2.00;;
73951;SDS011;62304;47.662;18.324;2023-04-03T07:52:14;7.30;;;2.67;;
73951;SDS011;62304;47.662;18.324;2023-04-03T07:55:18;5.50;;;1.62;;
73951;SDS011;62304;47.662;18.324;2023-04-03T07:58:20;4.20;;;2.08;;
73951;SDS011;62304;47.662;18.324;2023-04-03T08:01:23;4.00;;;1.65;;
73951;SDS011;62304;47.662;18.324;2023-04-03T08:04:26;4.80;;;1.90;;
73951;SDS011;62304;47.662;18.324;2023-04-03T08:07:30;3.77;;;1.50;;
73951;SDS011;62304;47.662;18.324;2023-04-03T08:10:32;3.08;;;1.10;;
73951;SDS011;62304;47.662;18.324;2023-04-03T08:13:36;3.37;;;1.50;;
73951;SDS011;62304;47.662;18.324;2023-04-03T08:16:39;4.80;;;1.58;;
73951;SDS011;62304;47.662;18.324;2023-04-03T08:19:41;3.42;;;1.30;;
73951;SDS011;62304;47.662;18.324;2023-04-03T08:22:44;3.43;;;1.30;;
73951;SDS011;62304;47.662;18.324;2023-04-03T08:25:47;4.43;;;1.80;;
73951;SDS011;62304;47.662;18.324;2023-04-03T08:28:50;5.37;;;1.60;;
73951;SDS011;62304;47.662;18.324;2023-04-03T08:31:53;3.92;;;1.73;;
73951;SDS011;62304;47.662;18.324;2023-04-03T08:34:56;5.18;;;2.20;;
73951;SDS011;62304;47.662;18.324;2023-04-03T08:37:59;4.07;;;1.93;;
73951;SDS011;62304;47.662;18.324;2023-04-03T08:41:04;4.20;;;2.15;;
73951;SDS011;62304;47.662;18.324;2023-04-03T08:47:24;5.22;;;2.00;;
73951;SDS011;62304;47.662;18.324;2023-04-03T08:50:51;4.75;;;2.30;;
73951;SDS011;62304;47.662;18.324;2023-04-03T08:54:03;4.67;;;2.27;;
73951;SDS011;62304;47.662;18.324;2023-04-03T08:57:10;6.15;;;2.10;;
73951;SDS011;62304;47.662;18.324;2023-04-03T09:00:21;5.07;;;2.17;;
73951;SDS011;62304;47.662;18.324;2023-04-03T09:03:29;4.57;;;2.00;;
73951;SDS011;62304;47.662;18.324;2023-04-03T09:06:34;8.98;;;2.80;;
73951;SDS011;62304;47.662;18.324;2023-04-03T09:09:40;7.30;;;2.37;;
73951;SDS011;62304;47.662;18.324;2023-04-03T09:12:46;7.85;;;2.25;;
73951;SDS011;62304;47.662;18.324;2023-04-03T09:15:54;4.50;;;2.33;;
73951;SDS011;62304;47.662;18.324;2023-04-03T09:19:04;6.22;;;2.80;;
73951;SDS011;62304;47.662;18.324;2023-04-03T09:22:26;5.40;;;2.45;;
73951;SDS011;62304;47.662;18.324;2023-04-03T09:25:34;5.67;;;3.17;;
73951;SDS011;62304;47.662;18.324;2023-04-03T09:28:39;5.25;;;2.58;;
73951;SDS011;62304;47.662;18.324;2023-04-03T09:32:02;8.98;;;2.83;;
73951;SDS011;62304;47.662;18.324;2023-04-03T09:35:23;4.60;;;2.37;;
73951;SDS011;62304;47.662;18.324;2023-04-03T09:38:41;7.97;;;2.90;;
73951;SDS011;62304;47.662;18.324;2023-04-03T09:41:57;8.27;;;3.10;;
73951;SDS011;62304;47.662;18.324;2023-04-03T09:45:05;4.50;;;2.42;;
73951;SDS011;62304;47.662;18.324;2023-04-03T09:48:24;6.03;;;3.08;;
73951;SDS011;62304;47.662;18.324;2023-04-03T09:51:29;6.80;;;2.40;;
73951;SDS011;62304;47.662;18.324;2023-04-03T09:54:34;6.65;;;3.17;;
73951;SDS011;62304;47.662;18.324;2023-04-03T09:57:44;5.30;;;2.80;;
73951;SDS011;62304;47.662;18.324;2023-04-03T10:00:53;6.35;;;3.20;;
73951;SDS011;62304;47.662;18.324;2023-04-03T10:04:17;5.70;;;3.00;;
73951;SDS011;62304;47.662;18.324;2023-04-03T10:07:32;5.82;;;2.60;;
73951;SDS011;62304;47.662;18.324;2023-04-03T10:10:40;6.37;;;2.70;;
73951;SDS011;62304;47.662;18.324;2023-04-03T10:13:55;10.67;;;3.60;;
73951;SDS011;62304;47.662;18.324;2023-04-03T10:20:49;7.15;;;2.70;;
73951;SDS011;62304;47.662;18.324;2023-04-03T10:23:57;5.03;;;2.40;;
73951;SDS011;62304;47.662;18.324;2023-04-03T10:40:23;5.53;;;2.03;;
73951;SDS011;62304;47.662;18.324;2023-04-03T10:46:49;4.47;;;2.07;;
73951;SDS011;62304;47.662;18.324;2023-04-03T10:53:30;4.95;;;1.65;;
73951;SDS011;62304;47.662;18.324;2023-04-03T11:00:48;5.15;;;2.78;;
73951;SDS011;62304;47.662;18.324;2023-04-03T11:03:51;4.90;;;1.90;;
73951;SDS011;62304;47.662;18.324;2023-04-03T11:07:02;4.60;;;2.05;;
73951;SDS011;62304;47.662;18.324;2023-04-03T11:10:36;3.67;;;1.87;;
73951;SDS011;62304;47.662;18.324;2023-04-03T11:23:36;3.35;;;1.50;;
73951;SDS011;62304;47.662;18.324;2023-04-03T11:26:50;7.78;;;2.62;;
73951;SDS011;62304;47.662;18.324;2023-04-03T11:29:56;3.90;;;1.92;;
73951;SDS011;62304;47.662;18.324;2023-04-03T11:36:18;3.83;;;1.53;;
73951;SDS011;62304;47.662;18.324;2023-04-03T11:39:41;4.05;;;2.05;;
73951;SDS011;62304;47.662;18.324;2023-04-03T11:46:08;4.00;;;1.90;;
73951;SDS011;62304;47.662;18.324;2023-04-03T11:53:39;4.13;;;1.93;;
73951;SDS011;62304;47.662;18.324;2023-04-03T11:59:36;4.15;;;1.50;;
73951;SDS011;62304;47.662;18.324;2023-04-03T12:02:39;4.55;;;1.98;;
73951;SDS011;62304;47.662;18.324;2023-04-03T12:12:37;6.32;;;3.10;;
73951;SDS011;62304;47.662;18.324;2023-04-03T12:15:50;4.20;;;1.67;;
73951;SDS011;62304;47.662;18.324;2023-04-03T12:22:08;5.57;;;2.17;;
73951;SDS011;62304;47.662;18.324;2023-04-03T12:28:53;8.05;;;2.35;;
73951;SDS011;62304;47.662;18.324;2023-04-03T12:42:04;7.10;;;2.73;;
73951;SDS011;62304;47.662;18.324;2023-04-03T12:48:18;6.28;;;1.92;;
73951;SDS011;62304;47.662;18.324;2023-04-03T12:51:36;3.72;;;1.55;;
73951;SDS011;62304;47.662;18.324;2023-04-03T12:54:42;5.87;;;2.30;;
73951;SDS011;62304;47.662;18.324;2023-04-03T12:57:48;4.00;;;1.93;;
73951;SDS011;62304;47.662;18.324;2023-04-03T13:01:05;6.82;;;1.92;;
73951;SDS011;62304;47.662;18.324;2023-04-03T13:04:14;4.55;;;2.22;;
73951;SDS011;62304;47.662;18.324;2023-04-03T13:07:30;3.80;;;1.60;;
73951;SDS011;62304;47.662;18.324;2023-04-03T13:14:30;6.50;;;2.20;;
73951;SDS011;62304;47.662;18.324;2023-04-03T13:17:33;4.87;;;1.85;;
73951;SDS011;62304;47.662;18.324;2023-04-03T13:20:41;5.35;;;1.80;;
73951;SDS011;62304;47.662;18.324;2023-04-03T13:23:45;3.78;;;1.83;;
73951;SDS011;62304;47.662;18.324;2023-04-03T13:26:54;4.05;;;1.80;;
73951;SDS011;62304;47.662;18.324;2023-04-03T13:30:00;5.13;;;1.43;;
73951;SDS011;62304;47.662;18.324;2023-04-03T13:33:17;5.68;;;1.85;;
73951;SDS011;62304;47.662;18.324;2023-04-03T13:36:26;6.25;;;1.80;;
73951;SDS011;62304;47.662;18.324;2023-04-03T13:39:34;6.43;;;2.10;;
73951;SDS011;62304;47.662;18.324;2023-04-03T13:42:40;6.37;;;2.22;;
73951;SDS011;62304;47.662;18.324;2023-04-03T13:45:53;3.67;;;1.23;;
73951;SDS011;62304;47.662;18.324;2023-04-03T13:48:59;4.35;;;1.20;;
73951;SDS011;62304;47.662;18.324;2023-04-03T13:52:41;3.92;;;1.67;;
73951;SDS011;62304;47.662;18.324;2023-04-03T13:55:55;4.93;;;1.62;;
73951;SDS011;62304;47.662;18.324;2023-04-03T13:59:18;7.55;;;2.47;;
73951;SDS011;62304;47.662;18.324;2023-04-03T14:02:32;4.30;;;1.73;;
73951;SDS011;62304;47.662;18.324;2023-04-03T14:05:37;6.50;;;2.17;;
73951;SDS011;62304;47.662;18.324;2023-04-03T14:08:40;9.32;;;2.50;;
73951;SDS011;62304;47.662;18.324;2023-04-03T14:11:46;5.75;;;1.42;;
73951;SDS011;62304;47.662;18.324;2023-04-03T14:14:50;6.05;;;2.00;;
73951;SDS011;62304;47.662;18.324;2023-04-03T14:17:53;5.53;;;1.90;;
73951;SDS011;62304;47.662;18.324;2023-04-03T14:20:57;6.97;;;1.52;;
73951;SDS011;62304;47.662;18.324;2023-04-03T14:24:00;4.62;;;1.58;;
73951;SDS011;62304;47.662;18.324;2023-04-03T14:27:05;4.25;;;1.58;;
73951;SDS011;62304;47.662;18.324;2023-04-03T14:30:20;5.53;;;2.50;;
73951;SDS011;62304;47.662;18.324;2023-04-03T14:33:27;4.83;;;1.60;;
73951;SDS011;62304;47.662;18.324;2023-04-03T14:36:33;8.20;;;1.48;;
73951;SDS011;62304;47.662;18.324;2023-04-03T14:39:36;4.65;;;1.55;;
73951;SDS011;62304;47.662;18.324;2023-04-03T14:42:40;5.97;;;1.58;;
73951;SDS011;62304;47.662;18.324;2023-04-03T14:45:43;5.53;;;2.12;;
73951;SDS011;62304;47.662;18.324;2023-04-03T14:48:46;4.73;;;1.60;;
73951;SDS011;62304;47.662;18.324;2023-04-03T14:51:49;6.55;;;1.75;;
73951;SDS011;62304;47.662;18.324;2023-04-03T14:54:53;9.18;;;2.03;;
73951;SDS011;62304;47.662;18.324;2023-04-03T14:57:56;4.93;;;1.80;;
73951;SDS011;62304;47.662;18.324;2023-04-03T15:00:59;8.25;;;1.35;;
73951;SDS011;62304;47.662;18.324;2023-04-03T15:04:05;6.17;;;1.70;;
73951;SDS011;62304;47.662;18.324;2023-04-03T15:07:14;4.47;;;1.30;;
73951;SDS011;62304;47.662;18.324;2023-04-03T15:10:22;5.75;;;1.40;;
73951;SDS011;62304;47.662;18.324;2023-04-03T15:13:27;6.40;;;1.60;;
73951;SDS011;62304;47.662;18.324;2023-04-03T15:16:32;4.22;;;1.50;;
73951;SDS011;62304;47.662;18.324;2023-04-03T15:19:36;7.27;;;1.80;;
73951;SDS011;62304;47.662;18.324;2023-04-03T15:22:39;4.68;;;1.27;;
73951;SDS011;62304;47.662;18.324;2023-04-03T15:25:43;3.50;;;1.40;;
73951;SDS011;62304;47.662;18.324;2023-04-03T15:28:48;7.70;;;1.65;;
73951;SDS011;62304;47.662;18.324;2023-04-03T15:31:52;5.37;;;1.67;;
73951;SDS011;62304;47.662;18.324;2023-04-03T15:34:55;4.03;;;1.03;;
73951;SDS011;62304;47.662;18.324;2023-04-03T15:37:58;5.68;;;1.73;;
73951;SDS011;62304;47.662;18.324;2023-04-03T15:41:01;4.43;;;1.35;;
73951;SDS011;62304;47.662;18.324;2023-04-03T15:44:04;5.65;;;1.50;;
73951;SDS011;62304;47.662;18.324;2023-04-03T15:47:07;5.07;;;1.58;;
73951;SDS011;62304;47.662;18.324;2023-04-03T15:50:10;5.90;;;1.97;;
73951;SDS011;62304;47.662;18.324;2023-04-03T15:53:13;5.03;;;1.85;;
73951;SDS011;62304;47.662;18.324;2023-04-03T15:56:17;5.50;;;1.62;;
73951;SDS011;62304;47.662;18.324;2023-04-03T15:59:19;4.03;;;1.67;;
73951;SDS011;62304;47.662;18.324;2023-04-03T16:02:23;4.22;;;1.30;;
73951;SDS011;62304;47.662;18.324;2023-04-03T16:05:26;7.63;;;1.27;;
73951;SDS011;62304;47.662;18.324;2023-04-03T16:08:29;6.20;;;1.60;;
73951;SDS011;62304;47.662;18.324;2023-04-03T16:11:32;3.95;;;1.45;;
73951;SDS011;62304;47.662;18.324;2023-04-03T16:14:37;6.37;;;1.15;;
73951;SDS011;62304;47.662;18.324;2023-04-03T16:17:40;4.57;;;1.20;;
73951;SDS011;62304;47.662;18.324;2023-04-03T16:20:43;4.80;;;1.67;;
73951;SDS011;62304;47.662;18.324;2023-04-03T16:23:46;6.70;;;2.00;;
73951;SDS011;62304;47.662;18.324;2023-04-03T16:26:49;6.22;;;1.52;;
73951;SDS011;62304;47.662;18.324;2023-04-03T16:29:52;4.32;;;1.30;;
73951;SDS011;62304;47.662;18.324;2023-04-03T16:32:56;8.38;;;1.27;;
73951;SDS011;62304;47.662;18.324;2023-04-03T16:35:59;5.13;;;1.10;;
73951;SDS011;62304;47.662;18.324;2023-04-03T16:39:02;4.68;;;1.65;;
73951;SDS011;62304;47.662;18.324;2023-04-03T16:42:06;5.30;;;1.70;;
73951;SDS011;62304;47.662;18.324;2023-04-03T16:45:09;10.73;;;2.08;;
73951;SDS011;62304;47.662;18.324;2023-04-03T16:48:15;5.37;;;2.40;;
73951;SDS011;62304;47.662;18.324;2023-04-03T16:51:18;4.37;;;1.27;;
73951;SDS011;62304;47.662;18.324;2023-04-03T16:54:23;4.93;;;1.40;;
73951;SDS011;62304;47.662;18.324;2023-04-03T16:57:26;9.02;;;3.10;;
73951;SDS011;62304;47.662;18.324;2023-04-03T17:00:32;8.05;;;1.52;;
73951;SDS011;62304;47.662;18.324;2023-04-03T17:03:36;4.43;;;1.60;;
73951;SDS011;62304;47.662;18.324;2023-04-03T17:06:45;6.47;;;1.13;;
73951;SDS011;62304;47.662;18.324;2023-04-03T17:09:48;6.90;;;1.70;;
73951;SDS011;62304;47.662;18.324;2023-04-03T17:12:52;6.72;;;1.75;;
73951;SDS011;62304;47.662;18.324;2023-04-03T17:15:58;5.12;;;1.75;;
73951;SDS011;62304;47.662;18.324;2023-04-03T17:19:02;4.10;;;1.30;;
73951;SDS011;62304;47.662;18.324;2023-04-03T17:22:06;10.93;;;1.20;;
73951;SDS011;62304;47.662;18.324;2023-04-03T17:25:12;5.78;;;1.10;;
73951;SDS011;62304;47.662;18.324;2023-04-03T17:28:15;8.40;;;1.10;;
73951;SDS011;62304;47.662;18.324;2023-04-03T17:31:20;7.35;;;1.40;;
73951;SDS011;62304;47.662;18.324;2023-04-03T17:34:22;4.80;;;1.20;;
73951;SDS011;62304;47.662;18.324;2023-04-03T17:37:26;6.27;;;1.07;;
73951;SDS011;62304;47.662;18.324;2023-04-03T17:40:29;5.07;;;1.17;;
73951;SDS011;62304;47.662;18.324;2023-04-03T17:43:34;5.40;;;1.35;;
73951;SDS011;62304;47.662;18.324;2023-04-03T17:46:40;4.68;;;1.23;;
73951;SDS011;62304;47.662;18.324;2023-04-03T17:49:43;3.45;;;1.30;;
73951;SDS011;62304;47.662;18.324;2023-04-03T17:52:46;4.57;;;0.93;;
73951;SDS011;62304;47.662;18.324;2023-04-03T17:55:50;4.20;;;0.90;;
73951;SDS011;62304;47.662;18.324;2023-04-03T17:58:55;11.10;;;2.25;;
73951;SDS011;62304;47.662;18.324;2023-04-03T18:02:01;5.82;;;0.95;;
73951;SDS011;62304;47.662;18.324;2023-04-03T18:05:04;3.55;;;1.02;;
73951;SDS011;62304;47.662;18.324;2023-04-03T18:08:08;2.67;;;0.73;;
73951;SDS011;62304;47.662;18.324;2023-04-03T18:11:13;8.25;;;1.55;;
73951;SDS011;62304;47.662;18.324;2023-04-03T18:14:19;4.80;;;1.00;;
73951;SDS011;62304;47.662;18.324;2023-04-03T18:17:27;7.68;;;1.20;;
73951;SDS011;62304;47.662;18.324;2023-04-03T18:20:31;5.35;;;1.10;;
73951;SDS011;62304;47.662;18.324;2023-04-03T18:23:34;4.90;;;1.00;;
73951;SDS011;62304;47.662;18.324;2023-04-03T18:26:40;3.65;;;0.70;;
73951;SDS011;62304;47.662;18.324;2023-04-03T18:29:57;3.37;;;1.08;;
73951;SDS011;62304;47.662;18.324;2023-04-03T18:33:04;10.55;;;1.87;;
73951;SDS011;62304;47.662;18.324;2023-04-03T18:36:09;6.37;;;1.85;;
73951;SDS011;62304;47.662;18.324;2023-04-03T18:39:14;4.40;;;1.33;;
73951;SDS011;62304;47.662;18.324;2023-04-03T18:42:22;6.35;;;1.10;;
73951;SDS011;62304;47.662;18.324;2023-04-03T18:45:28;4.78;;;1.30;;
73951;SDS011;62304;47.662;18.324;2023-04-03T18:48:35;4.55;;;1.42;;
73951;SDS011;62304;47.662;18.324;2023-04-03T18:51:44;5.05;;;1.73;;
73951;SDS011;62304;47.662;18.324;2023-04-03T18:54:51;5.47;;;1.30;;
73951;SDS011;62304;47.662;18.324;2023-04-03T18:57:55;5.53;;;1.60;;
73951;SDS011;62304;47.662;18.324;2023-04-03T19:01:03;5.85;;;1.80;;
73951;SDS011;62304;47.662;18.324;2023-04-03T19:04:09;4.10;;;1.10;;
73951;SDS011;62304;47.662;18.324;2023-04-03T19:07:14;6.28;;;1.87;;
73951;SDS011;62304;47.662;18.324;2023-04-03T19:10:20;4.27;;;1.10;;
73951;SDS011;62304;47.662;18.324;2023-04-03T19:13:24;4.62;;;0.90;;
73951;SDS011;62304;47.662;18.324;2023-04-03T19:16:29;3.67;;;1.00;;
73951;SDS011;62304;47.662;18.324;2023-04-03T19:19:33;5.53;;;1.12;;
73951;SDS011;62304;47.662;18.324;2023-04-03T19:22:36;7.07;;;1.30;;
73951;SDS011;62304;47.662;18.324;2023-04-03T19:25:40;4.80;;;1.10;;
73951;SDS011;62304;47.662;18.324;2023-04-03T19:28:44;6.72;;;1.52;;
73951;SDS011;62304;47.662;18.324;2023-04-03T19:31:51;6.00;;;1.70;;
73951;SDS011;62304;47.662;18.324;2023-04-03T19:34:58;3.70;;;1.23;;
73951;SDS011;62304;47.662;18.324;2023-04-03T19:38:02;7.43;;;1.30;;
73951;SDS011;62304;47.662;18.324;2023-04-03T19:41:10;4.13;;;1.27;;
73951;SDS011;62304;47.662;18.324;2023-04-03T19:44:17;4.28;;;1.37;;
73951;SDS011;62304;47.662;18.324;2023-04-03T19:47:21;4.40;;;1.00;;
73951;SDS011;62304;47.662;18.324;2023-04-03T19:50:28;3.62;;;1.00;;